sensor_id;sensor_type;location;lat;lon;timestamp;P1;durP1;ratioP1;P2;durP2;ratioP2
14203;SDS011;7185;51.854;6.622;2023-02-08T00:01:57;25.52;;;13.10;;
14203;SDS011;7185;51.854;6.622;2023-02-08T00:04:30;27.33;;;13.10;;
14203;SDS011;7185;51.854;6.622;2023-02-08T00:07:02;24.77;;;12.60;;
14203;SDS011;7185;51.854;6.622;2023-02-08T00:09:33;26.58;;;12.50;;
14203;SDS011;7185;51.854;6.622;2023-02-08T00:12:05;27.05;;;14.00;;
14203;SDS011;7185;51.854;6.622;2023-02-08T00:14:37;27.15;;;12.68;;
14203;SDS011;7185;51.854;6.622;2023-02-08T00:17:14;21.38;;;11.82;;
14203;SDS011;7185;51.854;6.622;2023-02-08T00:19:47;26.67;;;14.27;;
14203;SDS011;7185;51.854;6.622;2023-02-08T00:22:19;29.38;;;14.18;;
14203;SDS011;7185;51.854;6.622;2023-02-08T00:24:50;29.52;;;13.27;;
14203;SDS011;7185;51.854;6.622;2023-02-08T00:27:22;32.63;;;14.25;;
14203;SDS011;7185;51.854;6.622;2023-02-08T00:29:53;30.13;;;13.65;;
14203;SDS011;7185;51.854;6.622;2023-02-08T00:32:25;28.27;;;13.50;;
14203;SDS011;7185;51.854;6.622;2023-02-08T00:34:58;28.10;;;13.57;;
14203;SDS011;7185;51.854;6.622;2023-02-08T00:37:29;26.50;;;13.07;;
14203;SDS011;7185;51.854;6.622;2023-02-08T00:40:01;26.60;;;13.02;;
14203;SDS011;7185;51.854;6.622;2023-02-08T00:42:34;23.92;;;12.50;;
14203;SDS011;7185;51.854;6.622;2023-02-08T00:45:09;27.20;;;13.13;;
14203;SDS011;7185;51.854;6.622;2023-02-08T00:47:40;26.67;;;11.65;;
14203;SDS011;7185;51.854;6.622;2023-02-08T00:50:13;26.38;;;11.43;;
14203;SDS011;7185;51.854;6.622;2023-02-08T00:52:45;26.83;;;12.98;;
14203;SDS011;7185;51.854;6.622;2023-02-08T00:55:17;27.40;;;12.52;;
14203;SDS011;7185;51.854;6.622;2023-02-08T00:57:48;26.48;;;12.20;;
14203;SDS011;7185;51.854;6.622;2023-02-08T01:00:20;29.50;;;13.27;;
14203;SDS011;7185;51.854;6.622;2023-02-08T01:02:52;30.25;;;13.57;;
14203;SDS011;7185;51.854;6.622;2023-02-08T01:05:25;26.02;;;12.23;;
14203;SDS011;7185;51.854;6.622;2023-02-08T01:07:56;29.25;;;12.52;;
14203;SDS011;7185;51.854;6.622;2023-02-08T01:10:28;29.02;;;13.63;;
14203;SDS011;7185;51.854;6.622;2023-02-08T01:13:00;25.10;;;12.30;;
14203;SDS011;7185;51.854;6.622;2023-02-08T01:15:32;25.38;;;12.70;;
14203;SDS011;7185;51.854;6.622;2023-02-08T01:18:03;27.45;;;12.90;;
14203;SDS011;7185;51.854;6.622;2023-02-08T01:20:37;27.77;;;13.07;;
14203;SDS011;7185;51.854;6.622;2023-02-08T01:23:08;26.40;;;13.05;;
14203;SDS011;7185;51.854;6.622;2023-02-08T01:25:40;28.13;;;12.98;;
14203;SDS011;7185;51.854;6.622;2023-02-08T01:28:11;29.08;;;13.85;;
14203;SDS011;7185;51.854;6.622;2023-02-08T01:30:43;28.02;;;12.75;;
14203;SDS011;7185;51.854;6.622;2023-02-08T01:33:14;27.23;;;13.52;;
14203;SDS011;7185;51.854;6.622;2023-02-08T01:35:49;28.67;;;13.23;;
14203;SDS011;7185;51.854;6.622;2023-02-08T01:38:22;33.60;;;14.40;;
14203;SDS011;7185;51.854;6.622;2023-02-08T01:40:56;28.88;;;13.40;;
14203;SDS011;7185;51.854;6.622;2023-02-08T01:43:28;28.42;;;13.85;;
14203;SDS011;7185;51.854;6.622;2023-02-08T01:46:02;29.02;;;13.45;;
14203;SDS011;7185;51.854;6.622;2023-02-08T01:48:36;29.15;;;12.75;;
14203;SDS011;7185;51.854;6.622;2023-02-08T01:51:12;27.20;;;13.90;;
14203;SDS011;7185;51.854;6.622;2023-02-08T01:53:46;29.80;;;13.60;;
14203;SDS011;7185;51.854;6.622;2023-02-08T01:56:20;29.48;;;13.90;;
14203;SDS011;7185;51.854;6.622;2023-02-08T01:58:57;28.88;;;14.20;;
14203;SDS011;7185;51.854;6.622;2023-02-08T02:01:31;31.90;;;14.10;;
14203;SDS011;7185;51.854;6.622;2023-02-08T02:04:03;26.35;;;13.27;;
14203;SDS011;7185;51.854;6.622;2023-02-08T02:06:39;28.42;;;13.55;;
14203;SDS011;7185;51.854;6.622;2023-02-08T02:09:15;29.20;;;13.95;;
14203;SDS011;7185;51.854;6.622;2023-02-08T02:11:50;27.23;;;13.70;;
14203;SDS011;7185;51.854;6.622;2023-02-08T02:14:24;29.75;;;14.00;;
14203;SDS011;7185;51.854;6.622;2023-02-08T02:16:58;31.00;;;14.80;;
14203;SDS011;7185;51.854;6.622;2023-02-08T02:19:32;29.48;;;14.18;;
14203;SDS011;7185;51.854;6.622;2023-02-08T02:22:19;29.35;;;14.25;;
14203;SDS011;7185;51.854;6.622;2023-02-08T02:25:16;27.80;;;14.25;;
14203;SDS011;7185;51.854;6.622;2023-02-08T02:28:15;29.17;;;13.73;;
14203;SDS011;7185;51.854;6.622;2023-02-08T02:31:09;31.52;;;13.88;;
14203;SDS011;7185;51.854;6.622;2023-02-08T02:33:59;31.02;;;14.00;;
14203;SDS011;7185;51.854;6.622;2023-02-08T02:36:38;31.48;;;13.45;;
14203;SDS011;7185;51.854;6.622;2023-02-08T02:39:19;29.50;;;14.35;;
14203;SDS011;7185;51.854;6.622;2023-02-08T02:41:58;32.13;;;14.10;;
14203;SDS011;7185;51.854;6.622;2023-02-08T02:44:57;28.77;;;13.75;;
14203;SDS011;7185;51.854;6.622;2023-02-08T02:47:40;34.75;;;14.80;;
14203;SDS011;7185;51.854;6.622;2023-02-08T02:50:21;31.15;;;13.95;;
14203;SDS011;7185;51.854;6.622;2023-02-08T02:52:57;32.00;;;15.02;;
14203;SDS011;7185;51.854;6.622;2023-02-08T02:55:33;26.50;;;13.50;;
14203;SDS011;7185;51.854;6.622;2023-02-08T02:58:10;30.77;;;14.63;;
14203;SDS011;7185;51.854;6.622;2023-02-08T03:00:50;33.78;;;14.88;;
14203;SDS011;7185;51.854;6.622;2023-02-08T03:03:25;32.55;;;14.68;;
14203;SDS011;7185;51.854;6.622;2023-02-08T03:05:58;27.23;;;14.43;;
14203;SDS011;7185;51.854;6.622;2023-02-08T03:11:53;31.50;;;14.73;;
14203;SDS011;7185;51.854;6.622;2023-02-08T03:14:29;31.47;;;14.13;;
14203;SDS011;7185;51.854;6.622;2023-02-08T03:17:10;29.67;;;13.82;;
14203;SDS011;7185;51.854;6.622;2023-02-08T03:19:56;31.10;;;14.20;;
14203;SDS011;7185;51.854;6.622;2023-02-08T03:22:36;27.23;;;12.50;;
14203;SDS011;7185;51.854;6.622;2023-02-08T03:25:16;29.40;;;12.93;;
14203;SDS011;7185;51.854;6.622;2023-02-08T03:27:54;37.78;;;15.38;;
14203;SDS011;7185;51.854;6.622;2023-02-08T03:30:33;29.08;;;13.55;;
14203;SDS011;7185;51.854;6.622;2023-02-08T03:33:18;29.42;;;13.13;;
14203;SDS011;7185;51.854;6.622;2023-02-08T03:35:57;35.00;;;15.68;;
14203;SDS011;7185;51.854;6.622;2023-02-08T03:38:34;30.60;;;13.60;;
14203;SDS011;7185;51.854;6.622;2023-02-08T03:41:11;29.70;;;13.97;;
14203;SDS011;7185;51.854;6.622;2023-02-08T03:43:46;32.25;;;13.23;;
14203;SDS011;7185;51.854;6.622;2023-02-08T03:46:23;28.73;;;13.20;;
14203;SDS011;7185;51.854;6.622;2023-02-08T03:48:59;34.20;;;14.68;;
14203;SDS011;7185;51.854;6.622;2023-02-08T03:51:35;29.02;;;13.35;;
14203;SDS011;7185;51.854;6.622;2023-02-08T03:54:10;31.45;;;16.02;;
14203;SDS011;7185;51.854;6.622;2023-02-08T03:56:46;32.28;;;13.68;;
14203;SDS011;7185;51.854;6.622;2023-02-08T03:59:26;32.05;;;14.13;;
14203;SDS011;7185;51.854;6.622;2023-02-08T04:02:01;27.55;;;13.63;;
14203;SDS011;7185;51.854;6.622;2023-02-08T04:04:36;30.15;;;14.65;;
14203;SDS011;7185;51.854;6.622;2023-02-08T04:07:12;34.70;;;14.55;;
14203;SDS011;7185;51.854;6.622;2023-02-08T04:09:44;31.98;;;14.45;;
14203;SDS011;7185;51.854;6.622;2023-02-08T04:12:16;32.53;;;13.02;;
14203;SDS011;7185;51.854;6.622;2023-02-08T04:14:47;31.90;;;14.25;;
14203;SDS011;7185;51.854;6.622;2023-02-08T04:17:20;28.80;;;14.63;;
14203;SDS011;7185;51.854;6.622;2023-02-08T04:19:51;31.75;;;13.88;;
14203;SDS011;7185;51.854;6.622;2023-02-08T04:22:24;30.90;;;14.15;;
14203;SDS011;7185;51.854;6.622;2023-02-08T04:24:56;31.75;;;13.88;;
14203;SDS011;7185;51.854;6.622;2023-02-08T04:27:28;29.98;;;14.30;;
14203;SDS011;7185;51.854;6.622;2023-02-08T04:29:59;29.98;;;13.15;;
14203;SDS011;7185;51.854;6.622;2023-02-08T04:32:31;28.33;;;14.00;;
14203;SDS011;7185;51.854;6.622;2023-02-08T04:35:03;31.15;;;14.65;;
14203;SDS011;7185;51.854;6.622;2023-02-08T04:37:40;33.78;;;14.40;;
14203;SDS011;7185;51.854;6.622;2023-02-08T04:40:11;30.13;;;14.70;;
14203;SDS011;7185;51.854;6.622;2023-02-08T04:42:43;34.45;;;14.68;;
14203;SDS011;7185;51.854;6.622;2023-02-08T04:45:14;34.42;;;14.85;;
14203;SDS011;7185;51.854;6.622;2023-02-08T04:47:46;30.45;;;14.35;;
14203;SDS011;7185;51.854;6.622;2023-02-08T04:50:18;33.25;;;14.35;;
14203;SDS011;7185;51.854;6.622;2023-02-08T04:52:51;31.83;;;13.50;;
14203;SDS011;7185;51.854;6.622;2023-02-08T04:55:22;32.58;;;14.57;;
14203;SDS011;7185;51.854;6.622;2023-02-08T04:57:54;31.15;;;14.88;;
14203;SDS011;7185;51.854;6.622;2023-02-08T05:00:26;32.28;;;13.50;;
14203;SDS011;7185;51.854;6.622;2023-02-08T05:02:57;33.40;;;14.52;;
14203;SDS011;7185;51.854;6.622;2023-02-08T05:05:29;30.77;;;14.27;;
14203;SDS011;7185;51.854;6.622;2023-02-08T05:08:03;35.53;;;15.25;;
14203;SDS011;7185;51.854;6.622;2023-02-08T05:10:35;29.92;;;13.70;;
14203;SDS011;7185;51.854;6.622;2023-02-08T05:13:06;31.02;;;13.55;;
14203;SDS011;7185;51.854;6.622;2023-02-08T05:15:38;33.42;;;13.30;;
14203;SDS011;7185;51.854;6.622;2023-02-08T05:18:09;29.23;;;13.60;;
14203;SDS011;7185;51.854;6.622;2023-02-08T05:20:41;29.63;;;13.68;;
14203;SDS011;7185;51.854;6.622;2023-02-08T05:23:14;29.35;;;12.80;;
14203;SDS011;7185;51.854;6.622;2023-02-08T05:25:45;33.00;;;15.52;;
14203;SDS011;7185;51.854;6.622;2023-02-08T05:28:17;29.63;;;14.15;;
14203;SDS011;7185;51.854;6.622;2023-02-08T05:30:49;32.60;;;14.48;;
14203;SDS011;7185;51.854;6.622;2023-02-08T05:33:22;31.88;;;14.57;;
14203;SDS011;7185;51.854;6.622;2023-02-08T05:35:54;31.23;;;14.05;;
14203;SDS011;7185;51.854;6.622;2023-02-08T05:38:28;29.90;;;14.43;;
14203;SDS011;7185;51.854;6.622;2023-02-08T05:41:00;31.73;;;14.73;;
14203;SDS011;7185;51.854;6.622;2023-02-08T05:43:32;36.78;;;15.45;;
14203;SDS011;7185;51.854;6.622;2023-02-08T05:46:04;31.10;;;15.13;;
14203;SDS011;7185;51.854;6.622;2023-02-08T05:48:39;29.35;;;14.48;;
14203;SDS011;7185;51.854;6.622;2023-02-08T05:51:12;32.13;;;14.13;;
14203;SDS011;7185;51.854;6.622;2023-02-08T05:53:46;29.25;;;14.98;;
14203;SDS011;7185;51.854;6.622;2023-02-08T05:56:17;28.73;;;14.25;;
14203;SDS011;7185;51.854;6.622;2023-02-08T05:58:50;33.03;;;14.13;;
14203;SDS011;7185;51.854;6.622;2023-02-08T06:01:22;35.33;;;15.18;;
14203;SDS011;7185;51.854;6.622;2023-02-08T06:03:55;30.60;;;14.30;;
14203;SDS011;7185;51.854;6.622;2023-02-08T06:06:28;33.30;;;14.45;;
14203;SDS011;7185;51.854;6.622;2023-02-08T06:09:11;30.75;;;14.57;;
14203;SDS011;7185;51.854;6.622;2023-02-08T06:11:43;30.33;;;14.15;;
14203;SDS011;7185;51.854;6.622;2023-02-08T06:14:17;29.17;;;14.90;;
14203;SDS011;7185;51.854;6.622;2023-02-08T06:16:49;34.47;;;15.00;;
14203;SDS011;7185;51.854;6.622;2023-02-08T06:19:24;32.90;;;15.73;;
14203;SDS011;7185;51.854;6.622;2023-02-08T06:21:56;33.05;;;15.48;;
14203;SDS011;7185;51.854;6.622;2023-02-08T06:24:30;33.13;;;15.20;;
14203;SDS011;7185;51.854;6.622;2023-02-08T06:27:02;30.75;;;14.38;;
14203;SDS011;7185;51.854;6.622;2023-02-08T06:29:34;31.10;;;16.17;;
14203;SDS011;7185;51.854;6.622;2023-02-08T06:32:07;35.38;;;17.45;;
14203;SDS011;7185;51.854;6.622;2023-02-08T06:34:39;33.83;;;15.95;;
14203;SDS011;7185;51.854;6.622;2023-02-08T06:37:11;26.85;;;14.23;;
14203;SDS011;7185;51.854;6.622;2023-02-08T06:39:46;33.25;;;15.02;;
14203;SDS011;7185;51.854;6.622;2023-02-08T06:42:18;33.83;;;15.27;;
14203;SDS011;7185;51.854;6.622;2023-02-08T06:44:50;32.15;;;14.60;;
14203;SDS011;7185;51.854;6.622;2023-02-08T06:47:25;27.20;;;14.00;;
14203;SDS011;7185;51.854;6.622;2023-02-08T06:49:58;38.78;;;16.30;;
14203;SDS011;7185;51.854;6.622;2023-02-08T06:52:31;30.58;;;14.82;;
14203;SDS011;7185;51.854;6.622;2023-02-08T06:55:05;33.30;;;15.98;;
14203;SDS011;7185;51.854;6.622;2023-02-08T06:57:46;28.98;;;14.82;;
14203;SDS011;7185;51.854;6.622;2023-02-08T07:00:18;30.20;;;14.63;;
14203;SDS011;7185;51.854;6.622;2023-02-08T07:02:50;28.92;;;13.25;;
14203;SDS011;7185;51.854;6.622;2023-02-08T07:05:22;28.58;;;13.77;;
14203;SDS011;7185;51.854;6.622;2023-02-08T07:07:55;26.92;;;13.65;;
14203;SDS011;7185;51.854;6.622;2023-02-08T07:10:28;28.33;;;13.63;;
14203;SDS011;7185;51.854;6.622;2023-02-08T07:13:01;26.95;;;13.40;;
14203;SDS011;7185;51.854;6.622;2023-02-08T07:15:33;28.00;;;13.18;;
14203;SDS011;7185;51.854;6.622;2023-02-08T07:18:05;26.30;;;12.38;;
14203;SDS011;7185;51.854;6.622;2023-02-08T07:20:37;25.35;;;12.68;;
14203;SDS011;7185;51.854;6.622;2023-02-08T07:23:09;26.67;;;12.85;;
14203;SDS011;7185;51.854;6.622;2023-02-08T07:25:43;23.88;;;11.70;;
14203;SDS011;7185;51.854;6.622;2023-02-08T07:28:16;24.63;;;11.85;;
14203;SDS011;7185;51.854;6.622;2023-02-08T07:30:49;28.58;;;13.38;;
14203;SDS011;7185;51.854;6.622;2023-02-08T07:33:21;26.30;;;11.52;;
14203;SDS011;7185;51.854;6.622;2023-02-08T07:35:53;24.02;;;11.68;;
14203;SDS011;7185;51.854;6.622;2023-02-08T07:38:25;27.63;;;12.60;;
14203;SDS011;7185;51.854;6.622;2023-02-08T07:41:01;29.35;;;12.65;;
14203;SDS011;7185;51.854;6.622;2023-02-08T07:43:35;25.15;;;12.02;;
14203;SDS011;7185;51.854;6.622;2023-02-08T07:46:08;22.60;;;11.98;;
14203;SDS011;7185;51.854;6.622;2023-02-08T07:48:41;26.20;;;13.02;;
14203;SDS011;7185;51.854;6.622;2023-02-08T07:51:13;26.52;;;12.52;;
14203;SDS011;7185;51.854;6.622;2023-02-08T07:53:49;25.52;;;13.55;;
14203;SDS011;7185;51.854;6.622;2023-02-08T07:56:23;27.83;;;13.40;;
14203;SDS011;7185;51.854;6.622;2023-02-08T07:58:55;23.65;;;11.63;;
14203;SDS011;7185;51.854;6.622;2023-02-08T08:01:27;20.25;;;10.82;;
14203;SDS011;7185;51.854;6.622;2023-02-08T08:04:00;20.45;;;10.57;;
14203;SDS011;7185;51.854;6.622;2023-02-08T08:06:32;20.88;;;11.02;;
14203;SDS011;7185;51.854;6.622;2023-02-08T08:09:04;19.85;;;11.50;;
14203;SDS011;7185;51.854;6.622;2023-02-08T08:11:37;19.35;;;9.93;;
14203;SDS011;7185;51.854;6.622;2023-02-08T08:14:23;21.50;;;11.38;;
14203;SDS011;7185;51.854;6.622;2023-02-08T08:16:55;18.55;;;11.18;;
14203;SDS011;7185;51.854;6.622;2023-02-08T08:19:26;19.23;;;11.57;;
14203;SDS011;7185;51.854;6.622;2023-02-08T08:21:58;19.50;;;10.93;;
14203;SDS011;7185;51.854;6.622;2023-02-08T08:24:30;19.88;;;11.02;;
14203;SDS011;7185;51.854;6.622;2023-02-08T08:27:06;18.63;;;10.65;;
14203;SDS011;7185;51.854;6.622;2023-02-08T08:29:42;18.08;;;10.50;;
14203;SDS011;7185;51.854;6.622;2023-02-08T08:32:13;17.52;;;10.30;;
14203;SDS011;7185;51.854;6.622;2023-02-08T08:34:46;17.35;;;10.00;;
14203;SDS011;7185;51.854;6.622;2023-02-08T08:37:17;15.45;;;9.75;;
14203;SDS011;7185;51.854;6.622;2023-02-08T08:39:49;24.88;;;14.10;;
14203;SDS011;7185;51.854;6.622;2023-02-08T08:42:22;15.30;;;9.80;;
14203;SDS011;7185;51.854;6.622;2023-02-08T08:44:55;46.83;;;22.05;;
14203;SDS011;7185;51.854;6.622;2023-02-08T08:47:27;20.48;;;10.90;;
14203;SDS011;7185;51.854;6.622;2023-02-08T08:49:59;20.88;;;12.35;;
14203;SDS011;7185;51.854;6.622;2023-02-08T08:52:31;17.15;;;9.57;;
14203;SDS011;7185;51.854;6.622;2023-02-08T08:55:04;19.33;;;10.18;;
14203;SDS011;7185;51.854;6.622;2023-02-08T08:57:37;16.30;;;9.77;;
14203;SDS011;7185;51.854;6.622;2023-02-08T09:00:13;18.08;;;9.13;;
14203;SDS011;7185;51.854;6.622;2023-02-08T09:02:45;16.08;;;9.07;;
14203;SDS011;7185;51.854;6.622;2023-02-08T09:05:19;14.02;;;8.30;;
14203;SDS011;7185;51.854;6.622;2023-02-08T09:07:51;17.67;;;9.70;;
14203;SDS011;7185;51.854;6.622;2023-02-08T09:10:23;13.45;;;8.88;;
14203;SDS011;7185;51.854;6.622;2023-02-08T09:12:57;20.00;;;9.18;;
14203;SDS011;7185;51.854;6.622;2023-02-08T09:15:30;12.82;;;9.35;;
14203;SDS011;7185;51.854;6.622;2023-02-08T09:18:03;11.90;;;8.50;;
14203;SDS011;7185;51.854;6.622;2023-02-08T09:20:37;12.20;;;8.07;;
14203;SDS011;7185;51.854;6.622;2023-02-08T09:23:09;13.00;;;7.38;;
14203;SDS011;7185;51.854;6.622;2023-02-08T09:25:46;15.65;;;8.13;;
14203;SDS011;7185;51.854;6.622;2023-02-08T09:28:20;12.15;;;7.75;;
14203;SDS011;7185;51.854;6.622;2023-02-08T09:30:52;11.60;;;7.97;;
14203;SDS011;7185;51.854;6.622;2023-02-08T09:33:25;13.57;;;8.02;;
14203;SDS011;7185;51.854;6.622;2023-02-08T09:36:11;12.32;;;7.97;;
14203;SDS011;7185;51.854;6.622;2023-02-08T09:38:43;13.85;;;8.15;;
14203;SDS011;7185;51.854;6.622;2023-02-08T09:41:23;13.13;;;8.20;;
14203;SDS011;7185;51.854;6.622;2023-02-08T09:44:17;12.20;;;7.60;;
14203;SDS011;7185;51.854;6.622;2023-02-08T09:46:55;14.30;;;7.28;;
14203;SDS011;7185;51.854;6.622;2023-02-08T09:49:33;12.77;;;7.10;;
14203;SDS011;7185;51.854;6.622;2023-02-08T09:52:12;10.63;;;6.38;;
14203;SDS011;7185;51.854;6.622;2023-02-08T09:55:09;10.65;;;6.65;;
14203;SDS011;7185;51.854;6.622;2023-02-08T09:57:57;13.60;;;7.93;;
14203;SDS011;7185;51.854;6.622;2023-02-08T10:00:37;11.60;;;6.70;;
14203;SDS011;7185;51.854;6.622;2023-02-08T10:03:18;11.15;;;6.45;;
14203;SDS011;7185;51.854;6.622;2023-02-08T10:06:05;12.05;;;6.38;;
14203;SDS011;7185;51.854;6.622;2023-02-08T10:08:48;17.02;;;7.10;;
14203;SDS011;7185;51.854;6.622;2023-02-08T10:11:30;10.98;;;6.63;;
14203;SDS011;7185;51.854;6.622;2023-02-08T10:14:26;12.82;;;6.38;;
14203;SDS011;7185;51.854;6.622;2023-02-08T10:17:18;10.70;;;6.55;;
14203;SDS011;7185;51.854;6.622;2023-02-08T10:20:11;10.65;;;5.57;;
14203;SDS011;7185;51.854;6.622;2023-02-08T10:23:03;11.15;;;6.15;;
14203;SDS011;7185;51.854;6.622;2023-02-08T10:25:49;11.43;;;6.13;;
14203;SDS011;7185;51.854;6.622;2023-02-08T10:29:01;9.77;;;6.00;;
14203;SDS011;7185;51.854;6.622;2023-02-08T10:35:27;11.57;;;6.03;;
14203;SDS011;7185;51.854;6.622;2023-02-08T10:40:59;9.82;;;6.15;;
14203;SDS011;7185;51.854;6.622;2023-02-08T10:43:34;10.50;;;6.10;;
14203;SDS011;7185;51.854;6.622;2023-02-08T10:46:12;12.43;;;6.40;;
14203;SDS011;7185;51.854;6.622;2023-02-08T10:48:54;11.82;;;5.85;;
14203;SDS011;7185;51.854;6.622;2023-02-08T10:51:33;14.07;;;6.57;;
14203;SDS011;7185;51.854;6.622;2023-02-08T10:54:08;9.27;;;5.47;;
14203;SDS011;7185;51.854;6.622;2023-02-08T10:56:44;10.63;;;6.15;;
14203;SDS011;7185;51.854;6.622;2023-02-08T10:59:19;9.40;;;6.03;;
14203;SDS011;7185;51.854;6.622;2023-02-08T11:01:52;8.75;;;5.13;;
14203;SDS011;7185;51.854;6.622;2023-02-08T11:04:27;6.55;;;4.95;;
14203;SDS011;7185;51.854;6.622;2023-02-08T11:06:59;10.45;;;6.47;;
14203;SDS011;7185;51.854;6.622;2023-02-08T11:09:49;8.35;;;5.10;;
14203;SDS011;7185;51.854;6.622;2023-02-08T11:12:21;8.88;;;4.88;;
14203;SDS011;7185;51.854;6.622;2023-02-08T11:14:53;7.05;;;5.10;;
14203;SDS011;7185;51.854;6.622;2023-02-08T11:17:27;7.82;;;5.05;;
14203;SDS011;7185;51.854;6.622;2023-02-08T11:20:03;8.40;;;5.05;;
14203;SDS011;7185;51.854;6.622;2023-02-08T11:22:35;7.50;;;5.00;;
14203;SDS011;7185;51.854;6.622;2023-02-08T11:25:07;7.75;;;4.57;;
14203;SDS011;7185;51.854;6.622;2023-02-08T11:28:01;9.57;;;5.50;;
14203;SDS011;7185;51.854;6.622;2023-02-08T11:30:33;7.03;;;4.80;;
14203;SDS011;7185;51.854;6.622;2023-02-08T11:33:24;7.40;;;4.93;;
14203;SDS011;7185;51.854;6.622;2023-02-08T11:35:59;7.35;;;4.45;;
14203;SDS011;7185;51.854;6.622;2023-02-08T11:38:34;9.35;;;5.07;;
14203;SDS011;7185;51.854;6.622;2023-02-08T11:41:13;7.47;;;4.80;;
14203;SDS011;7185;51.854;6.622;2023-02-08T11:43:58;9.65;;;5.10;;
14203;SDS011;7185;51.854;6.622;2023-02-08T11:46:33;7.72;;;5.03;;
14203;SDS011;7185;51.854;6.622;2023-02-08T11:49:12;7.38;;;5.03;;
14203;SDS011;7185;51.854;6.622;2023-02-08T11:51:53;7.55;;;5.18;;
14203;SDS011;7185;51.854;6.622;2023-02-08T11:54:32;8.07;;;5.13;;
14203;SDS011;7185;51.854;6.622;2023-02-08T11:57:11;7.60;;;4.95;;
14203;SDS011;7185;51.854;6.622;2023-02-08T11:59:45;8.27;;;4.95;;
14203;SDS011;7185;51.854;6.622;2023-02-08T12:02:28;9.18;;;4.75;;
14203;SDS011;7185;51.854;6.622;2023-02-08T12:05:08;7.97;;;5.28;;
14203;SDS011;7185;51.854;6.622;2023-02-08T12:07:47;9.45;;;4.90;;
14203;SDS011;7185;51.854;6.622;2023-02-08T12:13:24;7.93;;;4.93;;
14203;SDS011;7185;51.854;6.622;2023-02-08T12:16:38;8.85;;;5.07;;
14203;SDS011;7185;51.854;6.622;2023-02-08T12:22:31;8.50;;;4.65;;
14203;SDS011;7185;51.854;6.622;2023-02-08T12:25:16;7.90;;;5.30;;
14203;SDS011;7185;51.854;6.622;2023-02-08T12:28:01;8.18;;;4.50;;
14203;SDS011;7185;51.854;6.622;2023-02-08T12:30:41;8.80;;;4.40;;
14203;SDS011;7185;51.854;6.622;2023-02-08T12:33:22;7.03;;;4.72;;
14203;SDS011;7185;51.854;6.622;2023-02-08T12:36:13;8.52;;;4.47;;
14203;SDS011;7185;51.854;6.622;2023-02-08T12:39:00;7.45;;;4.38;;
14203;SDS011;7185;51.854;6.622;2023-02-08T12:42:17;6.72;;;4.60;;
14203;SDS011;7185;51.854;6.622;2023-02-08T12:48:08;7.32;;;4.07;;
14203;SDS011;7185;51.854;6.622;2023-02-08T12:50:53;6.47;;;4.25;;
14203;SDS011;7185;51.854;6.622;2023-02-08T12:53:29;6.88;;;4.53;;
14203;SDS011;7185;51.854;6.622;2023-02-08T12:56:05;9.27;;;4.68;;
14203;SDS011;7185;51.854;6.622;2023-02-08T12:58:44;7.80;;;4.70;;
14203;SDS011;7185;51.854;6.622;2023-02-08T13:01:19;6.68;;;4.47;;
14203;SDS011;7185;51.854;6.622;2023-02-08T13:03:55;6.80;;;4.57;;
14203;SDS011;7185;51.854;6.622;2023-02-08T13:06:31;7.07;;;4.65;;
14203;SDS011;7185;51.854;6.622;2023-02-08T13:09:12;7.03;;;4.45;;
14203;SDS011;7185;51.854;6.622;2023-02-08T13:11:48;7.88;;;4.40;;
14203;SDS011;7185;51.854;6.622;2023-02-08T13:14:27;6.15;;;4.68;;
14203;SDS011;7185;51.854;6.622;2023-02-08T13:17:05;9.98;;;4.55;;
14203;SDS011;7185;51.854;6.622;2023-02-08T13:19:47;9.75;;;4.32;;
14203;SDS011;7185;51.854;6.622;2023-02-08T13:22:23;6.47;;;3.92;;
14203;SDS011;7185;51.854;6.622;2023-02-08T13:24:55;7.63;;;4.00;;
14203;SDS011;7185;51.854;6.622;2023-02-08T13:27:27;8.07;;;4.10;;
14203;SDS011;7185;51.854;6.622;2023-02-08T13:30:00;7.18;;;4.55;;
14203;SDS011;7185;51.854;6.622;2023-02-08T13:32:33;6.40;;;4.10;;
14203;SDS011;7185;51.854;6.622;2023-02-08T13:35:12;6.82;;;3.67;;
14203;SDS011;7185;51.854;6.622;2023-02-08T13:37:48;5.78;;;3.90;;
14203;SDS011;7185;51.854;6.622;2023-02-08T13:40:29;5.68;;;3.80;;
14203;SDS011;7185;51.854;6.622;2023-02-08T13:43:03;6.65;;;3.63;;
14203;SDS011;7185;51.854;6.622;2023-02-08T13:45:40;5.57;;;3.45;;
14203;SDS011;7185;51.854;6.622;2023-02-08T13:50:47;6.07;;;3.80;;
14203;SDS011;7185;51.854;6.622;2023-02-08T13:56:35;5.55;;;3.75;;
14203;SDS011;7185;51.854;6.622;2023-02-08T14:02:17;5.10;;;3.47;;
14203;SDS011;7185;51.854;6.622;2023-02-08T14:04:52;6.97;;;3.55;;
14203;SDS011;7185;51.854;6.622;2023-02-08T14:07:37;4.20;;;3.00;;
14203;SDS011;7185;51.854;6.622;2023-02-08T14:13:15;7.35;;;3.60;;
14203;SDS011;7185;51.854;6.622;2023-02-08T14:18:59;6.63;;;3.60;;
14203;SDS011;7185;51.854;6.622;2023-02-08T14:21:35;7.47;;;3.58;;
14203;SDS011;7185;51.854;6.622;2023-02-08T14:24:18;6.15;;;3.30;;
14203;SDS011;7185;51.854;6.622;2023-02-08T14:27:02;6.95;;;3.50;;
14203;SDS011;7185;51.854;6.622;2023-02-08T14:29:36;8.18;;;4.97;;
14203;SDS011;7185;51.854;6.622;2023-02-08T14:32:09;6.00;;;3.63;;
14203;SDS011;7185;51.854;6.622;2023-02-08T14:34:59;4.88;;;3.45;;
14203;SDS011;7185;51.854;6.622;2023-02-08T14:37:35;5.75;;;3.30;;
14203;SDS011;7185;51.854;6.622;2023-02-08T14:40:29;4.47;;;3.13;;
14203;SDS011;7185;51.854;6.622;2023-02-08T14:45:57;7.10;;;3.83;;
14203;SDS011;7185;51.854;6.622;2023-02-08T14:49:10;6.32;;;3.80;;
14203;SDS011;7185;51.854;6.622;2023-02-08T14:51:44;8.30;;;4.18;;
14203;SDS011;7185;51.854;6.622;2023-02-08T14:54:21;11.18;;;3.83;;
14203;SDS011;7185;51.854;6.622;2023-02-08T14:56:59;8.43;;;4.05;;
14203;SDS011;7185;51.854;6.622;2023-02-08T14:59:37;7.63;;;4.50;;
14203;SDS011;7185;51.854;6.622;2023-02-08T15:02:13;9.02;;;4.70;;
14203;SDS011;7185;51.854;6.622;2023-02-08T15:04:52;9.75;;;5.07;;
14203;SDS011;7185;51.854;6.622;2023-02-08T15:07:26;8.38;;;4.05;;
14203;SDS011;7185;51.854;6.622;2023-02-08T15:10:01;8.65;;;4.22;;
14203;SDS011;7185;51.854;6.622;2023-02-08T15:12:34;8.98;;;4.40;;
14203;SDS011;7185;51.854;6.622;2023-02-08T15:15:16;6.80;;;4.32;;
14203;SDS011;7185;51.854;6.622;2023-02-08T15:17:54;8.90;;;4.28;;
14203;SDS011;7185;51.854;6.622;2023-02-08T15:20:28;11.40;;;5.03;;
14203;SDS011;7185;51.854;6.622;2023-02-08T15:23:02;8.02;;;4.28;;
14203;SDS011;7185;51.854;6.622;2023-02-08T15:25:36;8.27;;;4.60;;
14203;SDS011;7185;51.854;6.622;2023-02-08T15:28:15;9.48;;;4.38;;
14203;SDS011;7185;51.854;6.622;2023-02-08T15:30:51;8.25;;;4.20;;
14203;SDS011;7185;51.854;6.622;2023-02-08T15:36:00;7.40;;;4.07;;
14203;SDS011;7185;51.854;6.622;2023-02-08T15:38:34;7.47;;;4.50;;
14203;SDS011;7185;51.854;6.622;2023-02-08T15:41:09;9.77;;;4.22;;
14203;SDS011;7185;51.854;6.622;2023-02-08T15:43:42;8.18;;;4.25;;
14203;SDS011;7185;51.854;6.622;2023-02-08T15:46:18;7.90;;;4.15;;
14203;SDS011;7185;51.854;6.622;2023-02-08T15:48:52;8.07;;;4.20;;
14203;SDS011;7185;51.854;6.622;2023-02-08T15:51:27;6.55;;;3.55;;
14203;SDS011;7185;51.854;6.622;2023-02-08T15:54:00;9.27;;;3.80;;
14203;SDS011;7185;51.854;6.622;2023-02-08T15:56:33;7.50;;;3.63;;
14203;SDS011;7185;51.854;6.622;2023-02-08T15:59:11;7.72;;;3.58;;
14203;SDS011;7185;51.854;6.622;2023-02-08T16:01:55;5.82;;;3.40;;
14203;SDS011;7185;51.854;6.622;2023-02-08T16:04:40;9.48;;;4.32;;
14203;SDS011;7185;51.854;6.622;2023-02-08T16:07:18;8.82;;;4.18;;
14203;SDS011;7185;51.854;6.622;2023-02-08T16:09:55;7.50;;;3.95;;
14203;SDS011;7185;51.854;6.622;2023-02-08T16:12:28;9.48;;;5.00;;
14203;SDS011;7185;51.854;6.622;2023-02-08T16:15:00;9.45;;;4.32;;
14203;SDS011;7185;51.854;6.622;2023-02-08T16:17:34;8.43;;;4.60;;